Time;durP1;ratioP1;P1;durP2;ratioP2;P2;SDS_P1;SDS_P2;PMS_P1;PMS_P2;Temp;Humidity;BMP_temperature;BMP_pressure;BME280_temperature;BME280_humidity;BME280_pressure;Samples;Min_cycle;Max_cycle;Signal;HPM_P1;HPM_P2
2022/05/21 00:01:35;;;;;;;6.43;4.40;;;;;;;22.05;71.01;97067.69;5023822;28;20200;-48
2022/05/21 00:04:01;;;;;;;4.95;4.45;;;;;;;21.95;71.75;97044.88;5028330;28;20579;-48
2022/05/21 00:06:28;;;;;;;5.75;4.25;;;;;;;21.82;71.69;97037.59;5053536;28;20651;-48
2022/05/21 00:08:54;;;;;;;7.13;4.50;;;;;;;21.78;72.45;97055.19;5053940;28;20214;-49
2022/05/21 00:11:21;;;;;;;6.63;4.90;;;;;;;21.71;74.88;97082.09;5051802;28;20590;-48
2022/05/21 00:13:48;;;;;;;6.30;4.97;;;;;;;21.67;76.18;97091.59;5049045;28;20273;-47
2022/05/21 00:16:16;;;;;;;8.73;4.47;;;;;;;21.49;78.06;97094.00;5054176;28;20302;-47
2022/05/21 00:18:43;;;;;;;4.95;4.35;;;;;;;21.44;78.60;97091.06;5054051;28;20568;-48
2022/05/21 00:21:11;;;;;;;5.07;4.40;;;;;;;21.34;78.92;97090.59;5053479;28;20195;-49
2022/05/21 00:23:38;;;;;;;6.60;4.68;;;;;;;21.27;79.19;97090.56;5053394;28;20685;-48
2022/05/21 00:26:08;;;;;;;5.60;4.53;;;;;;;21.19;79.22;97092.59;5053646;28;20230;-48
2022/05/21 00:28:36;;;;;;;6.93;4.80;;;;;;;21.07;79.93;97089.59;5055383;28;20199;-48
2022/05/21 00:31:04;;;;;;;5.97;4.40;;;;;;;21.01;81.10;97074.25;5057582;28;20237;-48
2022/05/21 00:33:34;;;;;;;9.30;4.80;;;;;;;20.93;81.48;97074.41;5057394;28;20199;-48
2022/05/21 00:36:01;;;;;;;5.93;4.95;;;;;;;20.95;82.94;97079.56;5057644;28;20204;-48
2022/05/21 00:38:28;;;;;;;7.25;4.70;;;;;;;20.87;83.69;97079.75;5056935;28;20199;-48
2022/05/21 00:40:55;;;;;;;6.50;4.50;;;;;;;20.88;82.08;97073.31;5057120;28;20234;-49
2022/05/21 00:43:41;;;;;;;5.18;4.38;;;;;;;20.74;81.89;97067.88;5057396;28;20200;-49
2022/05/21 00:46:10;;;;;;;4.85;4.35;;;;;;;20.75;82.19;97072.22;5057696;28;20207;-47
2022/05/21 00:48:38;;;;;;;7.28;4.60;;;;;;;20.75;81.93;97080.28;5057530;28;20214;-49
2022/05/21 00:51:06;;;;;;;7.63;4.57;;;;;;;20.72;82.19;97077.16;5056736;28;20219;-48
2022/05/21 00:53:32;;;;;;;6.35;4.50;;;;;;;20.70;81.91;97093.47;5057181;28;20206;-49
2022/05/21 00:56:00;;;;;;;6.35;4.60;;;;;;;20.76;81.37;97103.44;5056787;28;20518;-48
2022/05/21 01:01:13;;;;;;;6.97;4.53;;;;;;;20.63;82.42;97097.13;5057282;28;20265;-48
2022/05/21 01:03:42;;;;;;;7.55;4.47;;;;;;;20.62;82.36;97101.66;5055757;28;20203;-49
2022/05/21 01:06:09;;;;;;;7.05;4.63;;;;;;;20.63;81.67;97108.72;5056602;28;20214;-48
2022/05/21 01:08:37;;;;;;;6.63;3.92;;;;;;;20.60;82.89;97106.44;5056781;28;20199;-48
2022/05/21 01:11:08;;;;;;;7.57;5.20;;;;;;;20.63;81.94;97103.34;5056643;28;20322;-49
2022/05/21 01:13:36;;;;;;;4.85;4.45;;;;;;;20.75;79.80;97101.78;5051018;28;20203;-48
2022/05/21 01:16:02;;;;;;;5.70;4.50;;;;;;;20.61;80.62;97091.13;5056579;28;20547;-47
2022/05/21 01:18:29;;;;;;;7.53;4.80;;;;;;;20.61;80.48;97100.03;5059811;28;20211;-49
2022/05/21 01:20:58;;;;;;;5.95;4.70;;;;;;;20.58;81.67;97110.34;5069943;28;20199;-48
2022/05/21 01:23:27;;;;;;;6.68;4.43;;;;;;;20.63;81.26;97108.72;5064312;28;20214;-48
2022/05/21 01:25:55;;;;;;;4.80;4.32;;;;;;;20.59;81.65;97102.06;5058523;28;20243;-48
2022/05/21 01:28:24;;;;;;;7.15;4.85;;;;;;;20.61;83.10;97097.34;5056055;28;20210;-48
2022/05/21 01:30:54;;;;;;;8.90;4.43;;;;;;;20.64;82.05;97098.81;5056358;28;20277;-48
2022/05/21 01:33:23;;;;;;;5.78;4.20;;;;;;;20.56;83.53;97102.47;5056531;28;20559;-48
2022/05/21 01:35:50;;;;;;;5.88;4.03;;;;;;;20.50;84.57;97097.88;5056722;28;20570;-48
2022/05/21 01:38:20;;;;;;;7.43;4.65;;;;;;;20.48;84.03;97102.59;5055849;28;20218;-49
2022/05/21 01:40:48;;;;;;;7.10;4.65;;;;;;;20.37;85.63;97113.84;5056360;28;20532;-47
2022/05/21 01:45:56;;;;;;;4.72;4.32;;;;;;;20.33;86.08;97118.78;5033982;28;20623;-48
2022/05/21 01:48:25;;;;;;;5.68;4.70;;;;;;;20.34;85.42;97122.28;5056007;28;20211;-49
2022/05/21 01:50:53;;;;;;;5.38;4.78;;;;;;;20.28;85.65;97125.75;5055627;28;20231;-49
2022/05/21 01:53:21;;;;;;;6.93;4.70;;;;;;;20.22;88.39;97132.72;5055362;28;20578;-48
2022/05/21 01:55:49;;;;;;;6.05;5.13;;;;;;;20.22;88.00;97142.63;5055896;28;20786;-48
2022/05/21 01:58:17;;;;;;;5.70;5.20;;;;;;;20.20;87.63;97144.66;5056231;28;20207;-49
2022/05/21 02:00:46;;;;;;;5.63;4.80;;;;;;;20.17;88.83;97145.03;5055612;28;20206;-48
2022/05/21 02:03:13;;;;;;;5.97;4.90;;;;;;;20.21;87.54;97136.41;5055915;28;20264;-48
2022/05/21 02:05:44;;;;;;;5.13;4.63;;;;;;;20.18;88.15;97144.03;5056068;28;20199;-48
2022/05/21 02:08:11;;;;;;;6.65;4.82;;;;;;;20.24;87.24;97144.09;5055587;28;20195;-49
2022/05/21 02:10:38;;;;;;;13.10;10.63;;;;;;;20.21;87.59;97140.94;5055604;28;20202;-49
2022/05/21 02:13:06;;;;;;;12.45;10.32;;;;;;;20.21;86.92;97132.88;5055087;28;20636;-48
2022/05/21 02:15:32;;;;;;;7.60;6.20;;;;;;;20.22;87.79;97137.25;5055515;28;20199;-49
2022/05/21 02:17:59;;;;;;;7.53;5.20;;;;;;;20.19;88.13;97141.13;5055549;28;20272;-48
2022/05/21 02:20:25;;;;;;;5.20;4.70;;;;;;;20.15;88.58;97137.19;5055237;28;20238;-48
2022/05/21 02:22:52;;;;;;;5.55;4.90;;;;;;;20.12;88.36;97142.09;5054774;28;20206;-50
2022/05/21 02:25:18;;;;;;;5.50;5.00;;;;;;;20.16;88.56;97143.34;5051158;28;20207;-48
2022/05/21 02:27:45;;;;;;;5.78;4.45;;;;;;;20.18;87.81;97141.34;5055360;28;20199;-48
2022/05/21 02:30:14;;;;;;;6.85;5.65;;;;;;;20.14;89.03;97140.03;5055252;28;20199;-48
2022/05/21 02:32:41;;;;;;;5.38;4.90;;;;;;;20.19;88.43;97134.94;5054919;28;20230;-48
2022/05/21 02:35:09;;;;;;;6.03;5.20;;;;;;;20.10;89.49;97128.84;5055202;28;20207;-48
2022/05/21 02:40:22;;;;;;;7.10;5.40;;;;;;;20.07;89.95;97139.16;5054977;28;20205;-47
2022/05/21 02:42:49;;;;;;;6.15;5.35;;;;;;;20.06;89.90;97154.41;5054872;28;20199;-47
2022/05/21 02:45:19;;;;;;;6.13;5.50;;;;;;;20.12;89.25;97142.09;5054779;28;20195;-49
2022/05/21 02:47:46;;;;;;;5.60;5.18;;;;;;;20.10;89.66;97146.81;5054681;28;20210;-48
2022/05/21 02:50:15;;;;;;;6.90;5.50;;;;;;;20.05;89.71;97151.94;5053657;28;20207;-49
2022/05/21 02:52:42;;;;;;;6.28;5.70;;;;;;;20.00;90.74;97148.97;5054813;28;20227;-47
2022/05/21 02:55:11;;;;;;;6.07;5.25;;;;;;;20.06;90.19;97158.94;5054234;28;20203;-47
2022/05/21 02:57:37;;;;;;;5.75;5.15;;;;;;;20.02;90.49;97157.66;5054763;28;20624;-48
2022/05/21 03:00:06;;;;;;;5.88;5.35;;;;;;;20.02;89.81;97154.97;5054248;28;20536;-48
2022/05/21 03:02:34;;;;;;;11.02;6.25;;;;;;;20.14;88.22;97164.22;5054562;28;20195;-48
2022/05/21 03:05:02;;;;;;;8.63;6.28;;;;;;;20.16;87.62;97146.03;5054656;28;20210;-49
2022/05/21 03:07:29;;;;;;;6.38;5.78;;;;;;;20.20;86.74;97155.38;5054163;28;20257;-47
2022/05/21 03:12:40;;;;;;;6.63;5.55;;;;;;;20.12;86.12;97169.75;5052287;28;20276;-49
2022/05/21 03:15:08;;;;;;;6.07;5.57;;;;;;;20.00;87.39;97160.56;5054505;28;20214;-49
2022/05/21 03:17:36;;;;;;;6.38;5.47;;;;;;;19.94;87.92;97165.84;5054435;28;20214;-48
2022/05/21 03:20:04;;;;;;;6.53;5.80;;;;;;;19.88;87.98;97160.22;5054380;28;20211;-50
2022/05/21 03:22:30;;;;;;;6.60;6.00;;;;;;;19.79;89.62;97164.03;5040979;28;20230;-48
2022/05/21 03:24:56;;;;;;;6.20;5.60;;;;;;;19.76;89.15;97160.88;5054174;28;20242;-47
2022/05/21 03:27:24;;;;;;;7.95;6.20;;;;;;;19.80;88.85;97164.88;5053985;28;20239;-48
2022/05/21 03:29:50;;;;;;;7.70;5.85;;;;;;;19.72;89.62;97173.84;5053724;28;20207;-47
2022/05/21 03:32:17;;;;;;;6.57;5.85;;;;;;;19.77;88.74;97166.06;5065894;28;20237;-48
2022/05/21 03:34:45;;;;;;;6.60;5.88;;;;;;;19.78;87.53;97162.34;5061576;28;20210;-48
2022/05/21 03:37:11;;;;;;;8.60;5.70;;;;;;;19.57;88.78;97159.59;5060088;28;20207;-48
2022/05/21 03:39:38;;;;;;;6.90;5.90;;;;;;;19.55;90.02;97177.75;5048331;28;20207;-48
2022/05/21 03:42:07;;;;;;;6.75;5.97;;;;;;;19.68;88.04;97183.28;5054134;28;20203;-48
2022/05/21 03:44:33;;;;;;;7.82;5.82;;;;;;;19.60;89.19;97174.50;5054281;28;20540;-49
2022/05/21 03:47:02;;;;;;;6.07;5.47;;;;;;;19.43;90.94;97171.19;5053196;28;20639;-47
2022/05/21 03:49:29;;;;;;;7.03;6.00;;;;;;;19.46;90.72;97178.84;5053669;28;20213;-49
2022/05/21 03:51:57;;;;;;;6.85;6.13;;;;;;;19.35;92.30;97168.56;5053827;28;20231;-47
2022/05/21 03:54:26;;;;;;;8.15;7.35;;;;;;;19.37;92.24;97180.78;5054068;28;20524;-48
2022/05/21 03:56:53;;;;;;;6.82;6.03;;;;;;;19.33;91.98;97160.72;5054185;28;20242;-48
2022/05/21 03:59:19;;;;;;;7.90;5.72;;;;;;;19.24;93.30;97169.00;5054271;28;20210;-48
2022/05/21 04:01:46;;;;;;;7.63;6.22;;;;;;;19.20;94.07;97170.41;5055246;28;20203;-48
2022/05/21 04:04:12;;;;;;;6.28;5.70;;;;;;;19.24;92.30;97175.22;5058239;28;20203;-48
2022/05/21 04:06:39;;;;;;;6.85;5.80;;;;;;;19.27;91.99;97168.66;5058241;28;20211;-49
2022/05/21 04:09:07;;;;;;;6.38;5.70;;;;;;;19.16;93.86;97174.47;5058174;28;20207;-48
2022/05/21 04:11:33;;;;;;;6.60;5.60;;;;;;;19.16;94.09;97180.69;5058232;28;20305;-48
2022/05/21 04:14:00;;;;;;;9.38;5.90;;;;;;;19.08;94.78;97174.56;5057934;28;20207;-49
2022/05/21 04:16:28;;;;;;;7.22;5.85;;;;;;;19.06;93.41;97179.28;5058270;28;20207;-49
2022/05/21 04:18:55;;;;;;;8.20;5.90;;;;;;;19.01;93.47;97189.69;5057012;28;20628;-49
2022/05/21 04:21:26;;;;;;;7.18;5.82;;;;;;;19.17;91.63;97197.56;5058110;28;20218;-47
2022/05/21 04:23:52;;;;;;;6.28;5.75;;;;;;;19.08;91.90;97185.28;5056869;28;20646;-49
2022/05/21 04:26:20;;;;;;;7.35;6.03;;;;;;;19.01;92.31;97197.75;5057090;28;20231;-49
2022/05/21 04:28:47;;;;;;;8.80;6.00;;;;;;;19.03;92.59;97193.03;5057372;28;20210;-49
2022/05/21 04:31:13;;;;;;;6.07;5.40;;;;;;;18.91;93.39;97189.97;5057744;28;20289;-49
2022/05/21 04:33:39;;;;;;;6.03;5.40;;;;;;;18.91;93.93;97181.09;5057747;28;20405;-49
2022/05/21 04:36:22;;;;;;;5.93;5.35;;;;;;;18.84;93.46;97197.06;5058157;28;20203;-48
2022/05/21 04:38:51;;;;;;;5.60;5.10;;;;;;;18.87;93.60;97205.56;5062464;28;20230;-49
2022/05/21 04:41:18;;;;;;;5.90;5.40;;;;;;;18.89;94.15;97203.53;5074815;28;20241;-47
2022/05/21 04:43:45;;;;;;;6.15;5.55;;;;;;;18.81;94.72;97192.88;5069286;28;20222;-49
2022/05/21 04:46:12;;;;;;;6.05;5.55;;;;;;;18.83;94.04;97187.34;5057876;28;20217;-48
2022/05/21 04:48:41;;;;;;;5.88;5.38;;;;;;;18.94;92.60;97200.31;5057158;28;20207;-48
2022/05/21 04:51:08;;;;;;;6.20;5.70;;;;;;;19.00;92.37;97199.59;5057090;28;20214;-48
2022/05/21 04:53:34;;;;;;;6.07;5.57;;;;;;;19.02;92.53;97191.38;5057156;28;20238;-49
2022/05/21 04:56:01;;;;;;;6.07;5.32;;;;;;;19.00;91.22;97190.72;5056931;28;20195;-49
2022/05/21 04:58:28;;;;;;;6.28;5.60;;;;;;;18.94;92.31;97197.63;5057313;28;20227;-48
2022/05/21 05:00:56;;;;;;;5.80;4.93;;;;;;;18.98;92.59;97196.28;5056622;28;20206;-49
2022/05/21 05:03:23;;;;;;;6.68;5.25;;;;;;;19.04;91.77;97206.25;5048975;28;20208;-50
2022/05/21 05:05:51;;;;;;;5.45;5.05;;;;;;;19.01;91.36;97208.47;5057151;28;20207;-49
2022/05/21 05:08:20;;;;;;;5.85;5.45;;;;;;;19.03;91.37;97206.41;5057336;28;20211;-49
2022/05/21 05:10:50;;;;;;;5.63;4.70;;;;;;;19.00;90.39;97199.59;5056410;28;20207;-48
2022/05/21 05:13:16;;;;;;;6.22;5.38;;;;;;;19.01;91.20;97200.44;5048931;28;20756;-47
2022/05/21 05:15:44;;;;;;;6.05;5.15;;;;;;;19.00;90.78;97204.09;5056796;28;20203;-48
2022/05/21 05:18:13;;;;;;;5.72;4.97;;;;;;;19.05;89.20;97199.06;5057299;28;20542;-49
2022/05/21 05:20:40;;;;;;;5.95;5.28;;;;;;;19.00;90.73;97194.22;5048387;28;20207;-49
2022/05/21 05:23:07;;;;;;;5.60;5.05;;;;;;;19.03;90.90;97201.06;5058070;28;20207;-49
2022/05/21 05:25:34;;;;;;;7.15;5.40;;;;;;;18.99;92.05;97202.47;5062000;28;20233;-48
2022/05/21 05:28:03;;;;;;;5.90;5.32;;;;;;;19.03;91.52;97206.41;5078198;28;20267;-49
2022/05/21 05:30:30;;;;;;;5.18;4.72;;;;;;;19.08;90.07;97207.56;5078526;28;20179;-49
2022/05/21 05:32:56;;;;;;;5.63;4.97;;;;;;;19.08;89.23;97206.72;5079172;28;20231;-53
2022/05/21 05:35:24;;;;;;;5.13;4.63;;;;;;;19.06;88.88;97214.13;5078903;28;20192;-48
2022/05/21 05:37:51;;;;;;;5.63;4.95;;;;;;;18.95;89.33;97206.53;5077510;28;20214;-49
2022/05/21 05:40:20;;;;;;;5.43;4.93;;;;;;;18.96;89.23;97210.84;5079502;28;20211;-49
2022/05/21 05:42:47;;;;;;;4.78;4.40;;;;;;;18.96;89.58;97213.53;5057395;28;20241;-49
2022/05/21 05:45:15;;;;;;;7.13;4.68;;;;;;;19.01;89.34;97211.97;5049141;28;20226;-48
2022/05/21 05:47:41;;;;;;;4.90;4.50;;;;;;;19.06;87.08;97208.75;5060818;28;20203;-49
2022/05/21 05:50:09;;;;;;;5.97;4.55;;;;;;;19.09;86.54;97205.72;5061161;28;20204;-49
2022/05/21 05:52:37;;;;;;;4.93;4.47;;;;;;;19.07;86.84;97208.56;5064120;28;20238;-49
2022/05/21 05:55:03;;;;;;;6.22;4.20;;;;;;;19.03;88.02;97204.56;5064570;28;20229;-53
2022/05/21 05:57:30;;;;;;;4.60;4.20;;;;;;;19.03;87.35;97209.09;5070377;28;20199;-48
2022/05/21 05:59:56;;;;;;;4.55;4.15;;;;;;;19.08;87.40;97209.41;5069031;28;20267;-48
2022/05/21 06:05:11;;;;;;;5.07;4.57;;;;;;;19.11;85.97;97209.88;5065130;28;20214;-49
2022/05/21 06:07:43;;;;;;;4.18;3.85;;;;;;;19.11;85.83;97211.72;5065690;28;20548;-49
2022/05/21 06:10:11;;;;;;;7.82;4.18;;;;;;;19.11;85.36;97217.06;5068129;28;20297;-48
2022/05/21 06:12:37;;;;;;;5.45;4.30;;;;;;;19.09;85.24;97219.13;5063450;28;20237;-49
2022/05/21 06:15:05;;;;;;;3.88;3.58;;;;;;;19.06;86.18;97224.84;5065516;28;20233;-48
2022/05/21 06:17:31;;;;;;;5.45;3.75;;;;;;;19.09;85.05;97224.47;5064576;28;20291;-48
2022/05/21 06:19:58;;;;;;;5.25;4.47;;;;;;;19.02;86.59;97218.19;5067854;28;20211;-48
2022/05/21 06:22:25;;;;;;;5.38;3.95;;;;;;;19.05;84.87;97221.34;5079342;28;20206;-47
2022/05/21 06:24:53;;;;;;;3.90;3.60;;;;;;;19.07;83.41;97221.13;5078637;28;20213;-48
2022/05/21 06:27:20;;;;;;;3.53;3.13;;;;;;;19.02;81.48;97215.50;5078638;28;20204;-49
2022/05/21 06:29:47;;;;;;;3.95;3.22;;;;;;;19.09;79.91;97213.75;5079502;28;20187;-49
2022/05/21 06:32:13;;;;;;;4.28;3.38;;;;;;;19.08;80.28;97212.09;5079051;28;20241;-48
2022/05/21 06:34:40;;;;;;;4.85;3.38;;;;;;;19.05;80.94;97217.81;5079288;28;20217;-48
2022/05/21 06:37:08;;;;;;;3.78;3.45;;;;;;;19.13;80.38;97215.06;5079179;28;20181;-48
2022/05/21 06:39:35;;;;;;;3.88;3.55;;;;;;;19.08;81.79;97215.59;5078679;28;20203;-47
2022/05/21 06:42:03;;;;;;;3.28;3.08;;;;;;;19.03;81.33;97217.16;5078781;28;20183;-47
2022/05/21 06:44:30;;;;;;;4.55;3.22;;;;;;;19.01;82.11;97221.88;5075863;28;20217;-47
2022/05/21 06:46:57;;;;;;;3.70;3.40;;;;;;;19.13;80.93;97225.78;5077909;28;20183;-48
2022/05/21 06:49:26;;;;;;;3.63;3.33;;;;;;;19.08;81.96;97222.81;5077406;28;20250;-48
2022/05/21 06:51:54;;;;;;;3.63;3.33;;;;;;;19.09;81.93;97219.97;5078252;28;20188;-48
2022/05/21 06:54:22;;;;;;;5.13;3.58;;;;;;;19.18;80.37;97223.38;5076830;28;20567;-48
2022/05/21 06:56:48;;;;;;;4.45;3.30;;;;;;;19.13;81.05;97228.47;5066263;28;20211;-48
2022/05/21 06:59:17;;;;;;;3.67;3.38;;;;;;;19.20;79.28;97229.41;5054935;28;20615;-48
2022/05/21 07:01:43;;;;;;;3.92;3.55;;;;;;;19.14;80.45;97233.63;5054826;28;20207;-48
2022/05/21 07:04:10;;;;;;;4.32;3.58;;;;;;;19.17;78.67;97225.22;5055302;28;20227;-48
2022/05/21 07:09:21;;;;;;;3.55;3.25;;;;;;;19.20;79.02;97226.72;5054814;28;20309;-47
2022/05/21 07:11:48;;;;;;;4.40;3.13;;;;;;;19.18;79.63;97234.09;5054947;28;20241;-48
2022/05/21 07:14:17;;;;;;;6.18;3.53;;;;;;;19.25;79.61;97235.88;5055013;28;20318;-48
2022/05/21 07:16:44;;;;;;;3.30;3.00;;;;;;;19.24;79.43;97238.72;5054377;28;20210;-48
2022/05/21 07:19:10;;;;;;;3.78;3.03;;;;;;;19.27;79.18;97238.38;5054637;28;20217;-48
2022/05/21 07:21:37;;;;;;;9.05;3.70;;;;;;;19.36;78.95;97237.28;5054846;28;20650;-48
2022/05/21 07:24:04;;;;;;;3.42;3.13;;;;;;;19.32;79.31;97242.19;5054328;28;20214;-48
2022/05/21 07:26:31;;;;;;;3.08;2.88;;;;;;;19.37;79.28;97237.09;5054955;28;20234;-48
2022/05/21 07:28:58;;;;;;;3.88;3.55;;;;;;;19.44;78.86;97234.56;5054233;28;20218;-47
2022/05/21 07:31:26;;;;;;;4.70;3.17;;;;;;;19.42;81.36;97230.38;5054402;28;20600;-48
2022/05/21 07:33:53;;;;;;;3.38;3.15;;;;;;;19.45;79.81;97224.66;5055139;28;20234;-48
2022/05/21 07:36:19;;;;;;;4.68;3.22;;;;;;;19.50;80.01;97239.16;5055285;28;20199;-49
2022/05/21 07:38:46;;;;;;;3.83;3.33;;;;;;;19.59;80.35;97238.06;5061320;28;20225;-47
2022/05/21 07:41:12;;;;;;;3.30;3.10;;;;;;;19.60;78.98;97234.38;5061673;28;20207;-47
2022/05/21 07:43:39;;;;;;;4.00;3.50;;;;;;;19.59;77.15;97238.06;5060949;28;20199;-48
2022/05/21 07:46:07;;;;;;;3.17;2.88;;;;;;;19.55;78.81;97242.16;5060872;28;20207;-48
2022/05/21 07:48:35;;;;;;;4.07;3.50;;;;;;;19.55;77.67;97238.63;5060961;28;20758;-49
2022/05/21 07:51:06;;;;;;;3.50;3.20;;;;;;;19.56;78.60;97242.94;5061089;28;20203;-49
2022/05/21 07:53:35;;;;;;;3.60;3.30;;;;;;;19.64;79.27;97243.72;5076781;28;20269;-49
2022/05/21 07:56:02;;;;;;;3.90;3.55;;;;;;;19.63;78.90;97252.78;5060788;28;20207;-48
2022/05/21 07:58:31;;;;;;;3.42;3.10;;;;;;;19.66;78.60;97244.34;5066773;28;20206;-48
2022/05/21 08:00:57;;;;;;;3.45;3.15;;;;;;;19.68;77.99;97239.66;5063535;28;20233;-48
2022/05/21 08:03:25;;;;;;;5.78;3.35;;;;;;;19.68;76.65;97241.50;5062972;28;20203;-48
2022/05/21 08:05:53;;;;;;;4.25;3.33;;;;;;;19.74;76.88;97241.56;5067189;28;20203;-47
2022/05/21 08:08:22;;;;;;;3.47;3.28;;;;;;;19.81;78.48;97237.13;5058668;28;20195;-48
2022/05/21 08:10:48;;;;;;;3.58;3.28;;;;;;;19.94;77.86;97243.72;5061474;28;20640;-48
2022/05/21 08:13:16;;;;;;;3.60;3.30;;;;;;;20.00;76.56;97234.91;5054299;28;20219;-48
2022/05/21 08:15:43;;;;;;;3.58;3.28;;;;;;;20.00;77.09;97251.84;5060132;28;20203;-49
2022/05/21 08:18:09;;;;;;;3.63;3.30;;;;;;;19.97;76.63;97229.91;5061305;28;20203;-48
2022/05/21 08:20:38;;;;;;;3.85;3.45;;;;;;;19.99;76.25;97231.38;5060465;28;20372;-49
2022/05/21 08:28:34;;;;;;;4.13;3.70;;;;;;;20.15;75.27;97233.88;5058741;28;20717;-47
2022/05/21 08:31:03;;;;;;;5.65;3.40;;;;;;;20.02;74.65;97230.16;5059796;28;20211;-47
2022/05/21 08:33:29;;;;;;;6.88;3.50;;;;;;;20.01;75.57;97236.56;5059813;28;20235;-47
2022/05/21 08:35:56;;;;;;;3.35;3.15;;;;;;;20.04;74.61;97234.34;5060127;28;20290;-47
2022/05/21 08:38:24;;;;;;;4.20;3.65;;;;;;;19.96;75.62;97236.28;5060349;28;20219;-48
2022/05/21 08:40:54;;;;;;;3.42;3.13;;;;;;;20.01;74.22;97233.88;5059881;28;20218;-48
2022/05/21 08:43:23;;;;;;;3.40;3.20;;;;;;;19.91;75.01;97227.97;5060029;28;20195;-47
2022/05/21 08:45:59;;;;;;;5.00;3.67;;;;;;;19.95;74.16;97221.19;5060446;28;20213;-47
2022/05/21 08:48:28;;;;;;;3.65;3.35;;;;;;;19.96;75.50;97217.50;5058590;28;20195;-48
2022/05/21 08:50:55;;;;;;;4.07;3.67;;;;;;;20.01;74.13;97220.47;5057613;28;20563;-48
2022/05/21 08:53:25;;;;;;;3.58;3.30;;;;;;;19.99;74.53;97223.31;5056232;28;20632;-49
2022/05/21 08:55:55;;;;;;;3.88;3.38;;;;;;;20.03;72.85;97213.03;5057333;28;20226;-49
2022/05/21 08:58:26;;;;;;;4.03;3.47;;;;;;;20.05;74.33;97209.13;5057355;28;20215;-50
2022/05/21 09:00:55;;;;;;;4.20;3.10;;;;;;;20.14;74.79;97215.25;5056886;28;20214;-49
2022/05/21 09:03:23;;;;;;;4.45;3.30;;;;;;;20.17;73.86;97213.00;5056662;28;20292;-49
2022/05/21 09:05:58;;;;;;;3.17;2.97;;;;;;;20.07;72.59;97209.78;5057160;28;20199;-49
2022/05/21 09:08:31;;;;;;;3.30;3.10;;;;;;;20.18;71.67;97203.09;5057148;28;20207;-49
2022/05/21 09:11:01;;;;;;;4.65;3.67;;;;;;;20.23;74.06;97193.44;5056719;28;20203;-49
2022/05/21 09:13:35;;;;;;;6.03;3.08;;;;;;;20.52;74.32;97197.91;5055504;28;20243;-48
2022/05/21 09:18:47;;;;;;;4.25;3.40;;;;;;;20.69;72.30;97199.31;5056584;28;20217;-48
2022/05/21 09:21:20;;;;;;;3.78;3.47;;;;;;;20.84;70.77;97196.56;5056551;28;20210;-50
2022/05/21 09:23:52;;;;;;;3.75;3.40;;;;;;;20.98;69.80;97192.13;5056589;28;20690;-49
2022/05/21 09:26:21;;;;;;;6.68;3.25;;;;;;;21.06;69.22;97189.28;5071973;28;20231;-48
2022/05/21 09:28:48;;;;;;;5.28;3.05;;;;;;;21.11;66.54;97192.28;5057297;28;20203;-49
2022/05/21 09:31:23;;;;;;;3.40;3.20;;;;;;;21.12;65.82;97191.22;5057325;28;20290;-48
2022/05/21 09:33:50;;;;;;;6.45;2.95;;;;;;;21.19;67.11;97189.41;5053426;28;20234;-49
2022/05/21 09:36:21;;;;;;;3.35;3.15;;;;;;;21.21;66.35;97182.00;5057514;28;20203;-49
2022/05/21 09:38:55;;;;;;;4.13;3.25;;;;;;;21.34;67.09;97184.78;5056894;28;20191;-48
2022/05/21 09:41:23;;;;;;;2.58;2.42;;;;;;;21.55;67.39;97190.06;5056591;28;20203;-47
2022/05/21 09:46:36;;;;;;;2.70;2.53;;;;;;;21.66;65.55;97186.00;5056547;28;20318;-48
2022/05/21 09:49:30;;;;;;;3.15;2.47;;;;;;;21.62;63.46;97180.19;5057075;28;20203;-48
2022/05/21 09:51:59;;;;;;;2.53;2.17;;;;;;;21.70;62.92;97173.81;5044092;28;20195;-49
2022/05/21 09:54:34;;;;;;;3.80;3.50;;;;;;;21.74;63.32;97170.53;5056380;28;20663;-48
2022/05/21 09:57:01;;;;;;;3.42;2.55;;;;;;;21.75;62.33;97169.47;5057363;28;20191;-48
2022/05/21 09:59:29;;;;;;;2.55;2.35;;;;;;;21.98;63.45;97174.56;5056052;28;20207;-48
2022/05/21 10:01:57;;;;;;;2.45;2.35;;;;;;;21.90;61.61;97165.78;5056473;28;20570;-48
2022/05/21 10:04:31;;;;;;;2.85;2.40;;;;;;;21.81;59.80;97168.69;5055717;28;20630;-49
2022/05/21 10:07:03;;;;;;;3.65;2.38;;;;;;;21.93;61.59;97170.84;5055907;28;20636;-49
2022/05/21 10:12:24;;;;;;;4.60;2.50;;;;;;;22.03;59.55;97160.50;5055019;28;20293;-49
2022/05/21 10:14:53;;;;;;;3.90;2.47;;;;;;;22.09;58.84;97165.09;5059605;28;20215;-49
2022/05/21 10:17:28;;;;;;;4.38;1.92;;;;;;;22.25;59.71;97159.31;5063485;28;20628;-49
2022/05/21 10:19:57;;;;;;;2.50;2.30;;;;;;;22.43;58.93;97154.19;5062773;28;20205;-48
2022/05/21 10:22:32;;;;;;;2.30;2.08;;;;;;;22.56;58.62;97151.53;5062039;28;20229;-48
2022/05/21 10:25:07;;;;;;;2.60;2.40;;;;;;;22.53;55.59;97143.81;5059638;28;20219;-48
2022/05/21 10:28:04;;;;;;;2.55;2.15;;;;;;;22.35;55.42;97142.78;5045233;28;20206;-49
2022/05/21 10:30:47;;;;;;;2.30;2.10;;;;;;;22.63;56.91;97140.75;5055507;28;20207;-48
2022/05/21 10:33:23;;;;;;;3.42;2.13;;;;;;;22.55;54.53;97143.63;5056238;28;20230;-48
2022/05/21 10:36:14;;;;;;;2.15;1.95;;;;;;;22.64;55.01;97142.38;5055994;28;20221;-49
2022/05/21 10:39:15;;;;;;;3.65;2.47;;;;;;;22.45;52.97;97133.25;5055848;28;20199;-48
2022/05/21 10:41:55;;;;;;;2.65;2.22;;;;;;;22.55;54.23;97133.69;5053654;28;20623;-47
2022/05/21 10:44:32;;;;;;;3.03;2.42;;;;;;;22.66;55.38;97135.75;5054846;28;20199;-48
2022/05/21 10:47:03;;;;;;;3.00;2.28;;;;;;;22.68;52.90;97133.72;5055552;28;20209;-49
2022/05/21 10:49:57;;;;;;;2.53;1.95;;;;;;;22.74;53.77;97135.56;5054636;28;20635;-47
2022/05/21 10:52:32;;;;;;;3.17;2.22;;;;;;;22.86;53.46;97129.56;5055488;28;20303;-49
2022/05/21 10:55:07;;;;;;;2.92;2.20;;;;;;;23.12;51.86;97127.69;5072043;28;20225;-49
2022/05/21 10:58:12;;;;;;;1.90;1.80;;;;;;;23.52;51.67;97135.72;5056712;28;20198;-48
2022/05/21 11:00:44;;;;;;;2.60;1.75;;;;;;;23.80;51.11;97122.75;5049434;28;20562;-48
2022/05/21 11:04:01;;;;;;;1.83;1.73;;;;;;;23.83;53.03;97124.19;5055615;28;20547;-49
2022/05/21 11:06:55;;;;;;;3.25;2.95;;;;;;;23.77;48.33;97123.97;5009679;28;20211;-48
2022/05/21 11:09:27;;;;;;;2.28;2.08;;;;;;;23.58;48.08;97114.09;4985197;28;20570;-48
2022/05/21 11:12:01;;;;;;;2.20;2.10;;;;;;;23.66;50.10;97121.13;5039661;28;20510;-48
2022/05/21 11:14:37;;;;;;;3.45;2.30;;;;;;;23.91;49.51;97115.84;5042362;28;20219;-48
2022/05/21 11:17:15;;;;;;;3.63;2.10;;;;;;;24.39;48.71;97103.53;5055636;28;20202;-48
2022/05/21 11:19:48;;;;;;;3.10;2.00;;;;;;;24.19;48.18;97110.94;5055749;28;20199;-48
2022/05/21 11:22:22;;;;;;;2.42;2.22;;;;;;;24.25;48.12;97110.06;5055088;28;20230;-48
2022/05/21 11:24:55;;;;;;;3.17;2.40;;;;;;;24.17;49.06;97113.00;5054971;28;20187;-47
2022/05/21 11:27:25;;;;;;;2.13;1.83;;;;;;;24.20;49.18;97094.50;5054636;28;20235;-48
2022/05/21 11:29:56;;;;;;;2.35;2.10;;;;;;;24.41;51.02;97104.13;5054132;28;20549;-49
2022/05/21 11:37:58;;;;;;;2.58;2.38;;;;;;;25.47;47.11;97088.59;5053996;28;20202;-49
2022/05/21 11:40:50;;;;;;;3.08;2.50;;;;;;;25.84;44.32;97102.16;5054176;28;20290;-49
2022/05/21 11:43:19;;;;;;;3.95;2.58;;;;;;;26.10;45.73;97091.81;5054941;28;20207;-49
2022/05/21 11:46:01;;;;;;;2.65;2.45;;;;;;;26.50;45.49;97092.06;5054284;28;20643;-49
2022/05/21 11:48:30;;;;;;;2.90;2.63;;;;;;;26.93;45.70;97088.25;5054828;28;20233;-49
2022/05/21 11:51:25;;;;;;;1.90;1.70;;;;;;;27.14;43.82;97088.50;5054009;28;20203;-49
2022/05/21 11:53:52;;;;;;;3.97;2.92;;;;;;;27.35;44.09;97091.69;5036005;28;20269;-49
2022/05/21 11:56:18;;;;;;;2.63;2.42;;;;;;;27.68;42.89;97081.00;5054521;28;20207;-50
2022/05/21 11:59:20;;;;;;;2.70;2.45;;;;;;;27.84;43.14;97090.31;5054882;28;20213;-51
2022/05/21 12:02:12;;;;;;;2.88;2.35;;;;;;;27.96;41.74;97077.50;5050576;28;20199;-49
2022/05/21 12:04:57;;;;;;;2.50;2.30;;;;;;;27.93;42.09;97069.81;5052121;28;20195;-49
2022/05/21 12:07:53;;;;;;;3.80;2.70;;;;;;;27.70;39.39;97079.69;5052115;28;20253;-49
2022/05/21 12:10:24;;;;;;;2.60;2.40;;;;;;;27.58;38.87;97064.50;5054622;28;20203;-50
2022/05/21 12:13:07;;;;;;;3.92;2.63;;;;;;;27.05;40.84;97054.63;5049067;28;20230;-49
2022/05/21 12:15:36;;;;;;;3.58;3.28;;;;;;;27.62;42.41;97066.50;5053277;28;20725;-49
2022/05/21 12:18:06;;;;;;;3.72;3.15;;;;;;;27.56;42.44;97066.66;5053445;28;20218;-49
2022/05/21 12:20:44;;;;;;;2.55;2.35;;;;;;;27.58;43.50;97065.34;5054425;28;20250;-49
2022/05/21 12:23:38;;;;;;;2.72;2.53;;;;;;;27.62;46.15;97063.78;5054615;28;20214;-48